createdAt,value
2019-02-26T00:01:33.890Z,16.07
2019-02-26T00:04:04.597Z,16.23
2019-02-26T00:06:34.250Z,16.20
2019-02-26T00:09:06.600Z,15.57
2019-02-26T00:11:38.530Z,15.30
2019-02-26T00:14:07.929Z,15.87
2019-02-26T00:16:39.693Z,16.17
2019-02-26T00:19:09.790Z,16.70
2019-02-26T00:21:40.314Z,17.40
2019-02-26T00:24:12.331Z,17.00
2019-02-26T00:26:43.477Z,17.40
2019-02-26T00:29:12.829Z,15.73
2019-02-26T00:31:43.451Z,16.80
2019-02-26T00:34:16.041Z,17.63
2019-02-26T00:36:45.279Z,17.87
2019-02-26T00:39:15.027Z,16.63
2019-02-26T00:41:44.685Z,16.70
2019-02-26T00:44:14.415Z,16.00
2019-02-26T00:46:44.160Z,17.17
2019-02-26T00:49:13.910Z,14.23
2019-02-26T00:51:45.987Z,16.23
2019-02-26T00:54:14.943Z,15.97
2019-02-26T00:56:44.573Z,17.90
2019-02-26T00:59:14.289Z,16.63
2019-02-26T01:01:46.037Z,17.27
2019-02-26T01:04:16.077Z,17.13
2019-02-26T01:06:45.764Z,18.20
2019-02-26T01:09:15.980Z,17.23
2019-02-26T01:11:47.533Z,16.90
2019-02-26T01:14:18.617Z,17.07
2019-02-26T01:16:48.513Z,16.97
2019-02-26T01:19:19.835Z,17.00
2019-02-26T01:21:50.817Z,17.00
2019-02-26T01:24:21.492Z,16.93
2019-02-26T01:26:51.888Z,15.87
2019-02-26T01:29:23.048Z,14.67
2019-02-26T01:31:52.935Z,17.50
2019-02-26T01:34:22.711Z,17.77
2019-02-26T01:36:52.347Z,17.17
2019-02-26T01:39:23.387Z,17.63
2019-02-26T01:41:56.014Z,17.43
2019-02-26T01:44:28.052Z,16.57
2019-02-26T01:46:57.808Z,18.83
2019-02-26T01:49:28.512Z,17.83
2019-02-26T01:51:58.368Z,17.17
2019-02-26T01:54:28.670Z,17.13
2019-02-26T01:56:59.474Z,17.60
2019-02-26T01:59:29.179Z,18.23
2019-02-26T02:01:58.851Z,16.80
2019-02-26T02:04:28.482Z,18.30
2019-02-26T02:06:58.960Z,17.37
2019-02-26T02:09:29.675Z,17.60
2019-02-26T02:12:00.082Z,18.43
2019-02-26T02:14:30.730Z,16.90
2019-02-26T02:17:01.228Z,18.67
2019-02-26T02:19:32.659Z,17.20
2019-02-26T02:22:02.426Z,17.17
2019-02-26T02:24:32.092Z,16.80
2019-02-26T02:27:01.855Z,17.67
2019-02-26T02:29:31.554Z,17.57
2019-02-26T02:32:02.814Z,18.00
2019-02-26T02:34:33.741Z,17.47
2019-02-26T02:37:04.304Z,17.93
2019-02-26T02:39:34.067Z,18.20
2019-02-26T02:42:03.825Z,16.60
2019-02-26T02:44:33.559Z,18.77
2019-02-26T02:47:04.268Z,19.77
2019-02-26T02:49:37.473Z,19.23
2019-02-26T02:52:07.208Z,18.00
2019-02-26T02:54:38.715Z,19.07
2019-02-26T02:57:10.010Z,18.60
2019-02-26T02:59:42.320Z,18.43
2019-02-26T03:02:12.721Z,17.50
2019-02-26T03:04:42.752Z,20.07
2019-02-26T03:07:12.449Z,20.20
2019-02-26T03:09:43.234Z,19.03
2019-02-26T03:12:13.489Z,20.87
2019-02-26T03:14:44.493Z,18.50
2019-02-26T03:17:18.169Z,19.70
2019-02-26T03:19:46.694Z,19.20
2019-02-26T03:22:18.910Z,18.67
2019-02-26T03:24:48.360Z,22.30
2019-02-26T03:27:19.118Z,20.30
2019-02-26T03:29:49.946Z,18.87
2019-02-26T03:32:20.195Z,20.17
2019-02-26T03:34:49.904Z,19.73
2019-02-26T03:37:19.741Z,17.67
2019-02-26T03:39:49.504Z,21.17
2019-02-26T03:42:21.167Z,19.67
2019-02-26T03:44:50.635Z,19.57
2019-02-26T03:47:20.474Z,18.87
2019-02-26T03:49:50.239Z,21.33
2019-02-26T03:52:20.022Z,20.03
2019-02-26T03:54:50.681Z,21.73
2019-02-26T03:57:22.691Z,21.90
2019-02-26T03:59:52.241Z,23.50
2019-02-26T04:02:23.529Z,22.30
2019-02-26T04:04:54.393Z,20.53
2019-02-26T04:07:25.980Z,21.43
2019-02-26T04:09:58.395Z,25.30
2019-02-26T04:12:28.537Z,24.97
2019-02-26T04:14:58.445Z,26.30
2019-02-26T04:17:30.795Z,21.77
2019-02-26T04:19:59.526Z,23.63
2019-02-26T04:22:39.214Z,23.90
2019-02-26T04:25:36.450Z,21.37
2019-02-26T04:28:16.125Z,24.57
2019-02-26T04:31:29.000Z,23.43
2019-02-26T04:34:35.059Z,21.70
2019-02-26T04:37:40.287Z,23.80
2019-02-26T04:40:38.934Z,23.67
2019-02-26T04:43:38.852Z,22.33
2019-02-26T04:46:48.140Z,21.97
2019-02-26T04:49:17.817Z,23.37
2019-02-26T04:51:48.509Z,20.83
2019-02-26T04:54:23.795Z,20.33
2019-02-26T04:56:51.705Z,20.73
2019-02-26T04:59:21.470Z,21.33
2019-02-26T05:01:52.328Z,21.17
2019-02-26T05:04:22.820Z,21.40
2019-02-26T05:06:52.490Z,24.67
2019-02-26T05:09:24.120Z,26.60
2019-02-26T05:11:53.507Z,23.53
2019-02-26T05:14:23.704Z,24.17
2019-02-26T05:16:53.466Z,24.13
2019-02-26T05:19:24.384Z,23.60
2019-02-26T05:21:56.786Z,25.20
2019-02-26T05:24:26.287Z,22.60
2019-02-26T05:26:56.123Z,25.43
2019-02-26T05:29:25.863Z,24.63
2019-02-26T05:31:58.097Z,23.60
2019-02-26T05:34:27.163Z,25.87
2019-02-26T05:36:59.653Z,24.70
2019-02-26T05:39:28.831Z,25.83
2019-02-26T05:42:00.851Z,24.13
2019-02-26T05:44:31.430Z,24.53
2019-02-26T05:47:01.599Z,23.40
2019-02-26T05:49:35.330Z,23.07
2019-02-26T05:52:04.755Z,21.33
2019-02-26T05:54:35.393Z,23.87
2019-02-26T05:57:06.674Z,25.00
2019-02-26T05:59:36.445Z,24.10
2019-02-26T06:02:06.133Z,24.07
2019-02-26T06:04:38.395Z,24.07
2019-02-26T06:07:09.853Z,24.67
2019-02-26T06:09:39.560Z,25.43
2019-02-26T06:12:09.242Z,23.37
2019-02-26T06:14:39.435Z,23.00
2019-02-26T06:17:10.513Z,23.43
2019-02-26T06:19:50.096Z,25.17
2019-02-26T06:22:21.374Z,24.60
2019-02-26T06:24:54.964Z,26.33
2019-02-26T06:27:24.733Z,26.77
2019-02-26T06:29:55.489Z,29.87
2019-02-26T06:32:29.932Z,23.50
2019-02-26T06:34:56.540Z,26.27
2019-02-26T06:37:28.439Z,28.23
2019-02-26T06:39:59.896Z,24.80
2019-02-26T06:42:31.595Z,23.37
2019-02-26T06:45:00.355Z,27.43
2019-02-26T06:47:31.045Z,24.37
2019-02-26T06:50:02.931Z,23.97
2019-02-26T06:52:35.121Z,25.33
2019-02-26T06:55:07.203Z,22.57
2019-02-26T06:57:38.837Z,25.83
2019-02-26T07:00:10.968Z,24.60
2019-02-26T07:02:42.986Z,22.50
2019-02-26T07:05:13.118Z,23.20
2019-02-26T07:07:42.799Z,23.93
2019-02-26T07:10:16.005Z,23.70
2019-02-26T07:12:46.138Z,23.53
2019-02-26T07:15:16.573Z,25.50
2019-02-26T07:17:47.266Z,23.03
2019-02-26T07:20:17.659Z,23.57
2019-02-26T07:22:49.632Z,24.03
2019-02-26T07:25:18.891Z,25.80
2019-02-26T07:27:48.641Z,25.23
2019-02-26T07:30:18.402Z,23.70
2019-02-26T07:32:48.361Z,24.13
2019-02-26T07:35:18.032Z,26.73
2019-02-26T07:37:47.754Z,24.83
2019-02-26T07:40:18.727Z,22.77
2019-02-26T07:42:49.163Z,23.67
2019-02-26T07:45:21.843Z,21.90
2019-02-26T07:47:53.250Z,24.43
2019-02-26T07:50:22.331Z,26.20
2019-02-26T07:52:52.645Z,27.67
2019-02-26T07:55:23.591Z,23.73
2019-02-26T07:57:53.404Z,25.10
2019-02-26T08:00:23.822Z,27.97
2019-02-26T08:02:56.454Z,28.70
2019-02-26T08:05:28.675Z,25.93
2019-02-26T08:07:57.392Z,25.00
2019-02-26T08:10:27.168Z,21.67
2019-02-26T08:12:59.401Z,25.97
2019-02-26T08:15:30.193Z,24.37
2019-02-26T08:18:01.251Z,24.03
2019-02-26T08:20:33.012Z,26.77
2019-02-26T08:23:02.447Z,27.07
2019-02-26T08:25:32.165Z,25.77
2019-02-26T08:28:01.796Z,27.20
2019-02-26T08:30:31.487Z,26.53
2019-02-26T08:33:04.283Z,28.50
2019-02-26T08:35:32.517Z,28.47
2019-02-26T08:38:05.624Z,25.53
2019-02-26T08:40:33.502Z,24.97
2019-02-26T08:43:03.154Z,26.73
2019-02-26T08:45:32.887Z,26.67
2019-02-26T08:48:02.511Z,26.50
2019-02-26T08:50:33.313Z,28.13
2019-02-26T08:53:03.738Z,26.93
2019-02-26T08:55:33.383Z,28.80
2019-02-26T08:58:03.022Z,26.20
2019-02-26T09:00:34.201Z,27.63
2019-02-26T09:03:04.248Z,29.07
2019-02-26T09:05:34.469Z,28.97
2019-02-26T09:08:05.966Z,27.30
2019-02-26T09:10:38.600Z,28.00
2019-02-26T09:13:09.376Z,28.30
2019-02-26T09:15:41.369Z,26.53
2019-02-26T09:18:11.666Z,27.83
2019-02-26T09:20:41.307Z,29.80
2019-02-26T09:23:11.011Z,28.30
2019-02-26T09:25:40.751Z,28.43
2019-02-26T09:28:10.489Z,27.50
2019-02-26T09:30:40.835Z,27.87
2019-02-26T09:33:11.219Z,27.77
2019-02-26T09:35:40.935Z,31.03
2019-02-26T09:38:12.348Z,25.30
2019-02-26T09:40:41.954Z,24.33
2019-02-26T09:43:12.893Z,26.43
2019-02-26T09:45:43.557Z,25.27
2019-02-26T09:48:16.602Z,34.13
2019-02-26T09:50:46.388Z,30.10
2019-02-26T09:53:17.131Z,27.20
2019-02-26T09:55:46.762Z,26.70
2019-02-26T09:58:18.067Z,29.27
2019-02-26T10:00:50.479Z,28.20
2019-02-26T10:03:19.035Z,27.70
2019-02-26T10:05:52.219Z,26.50
2019-02-26T10:08:22.212Z,28.03
2019-02-26T10:10:52.042Z,25.27
2019-02-26T10:13:24.990Z,25.10
2019-02-26T10:15:56.279Z,26.63
2019-02-26T10:18:27.768Z,28.33
2019-02-26T10:20:57.107Z,29.90
2019-02-26T10:23:29.096Z,32.70
2019-02-26T10:26:00.306Z,28.57
2019-02-26T10:28:30.154Z,30.00
2019-02-26T10:31:04.232Z,29.60
2019-02-26T10:33:31.604Z,27.43
2019-02-26T10:36:04.871Z,30.00
2019-02-26T10:38:36.012Z,28.40
2019-02-26T10:41:06.049Z,29.20
2019-02-26T10:43:36.050Z,28.30
2019-02-26T10:46:06.034Z,28.33
2019-02-26T10:48:35.758Z,29.63
2019-02-26T10:51:06.532Z,28.47
2019-02-26T10:53:37.016Z,29.43
2019-02-26T10:56:06.839Z,29.67
2019-02-26T10:58:37.551Z,29.93
2019-02-26T11:01:07.600Z,30.50
2019-02-26T11:03:40.782Z,29.20
2019-02-26T11:06:10.713Z,28.87
2019-02-26T11:08:40.230Z,28.80
2019-02-26T11:11:12.945Z,27.20
2019-02-26T11:13:43.485Z,29.87
2019-02-26T11:16:17.071Z,28.70
2019-02-26T11:18:45.720Z,27.97
2019-02-26T11:21:16.916Z,29.27
2019-02-26T11:23:46.726Z,29.90
2019-02-26T11:26:18.769Z,30.50
2019-02-26T11:28:48.090Z,29.13
2019-02-26T11:31:20.112Z,29.73
2019-02-26T11:33:49.381Z,26.83
2019-02-26T11:36:19.124Z,31.17
2019-02-26T11:38:48.865Z,27.90
2019-02-26T11:41:18.662Z,28.43
2019-02-26T11:43:48.418Z,30.63
2019-02-26T11:46:20.004Z,30.13
2019-02-26T11:48:50.206Z,29.00
2019-02-26T11:51:21.117Z,29.73
2019-02-26T11:53:50.854Z,32.63
2019-02-26T11:56:22.953Z,28.27
2019-02-26T11:58:52.162Z,30.70
2019-02-26T12:01:22.020Z,28.40
2019-02-26T12:03:55.881Z,30.30
2019-02-26T12:06:23.253Z,32.23
2019-02-26T12:08:52.981Z,29.50
2019-02-26T12:11:23.266Z,29.80
2019-02-26T12:13:53.273Z,28.47
2019-02-26T12:16:23.213Z,28.27
2019-02-26T12:18:53.045Z,28.20
2019-02-26T12:21:25.209Z,30.77
2019-02-26T12:23:55.666Z,28.60
2019-02-26T12:26:27.388Z,30.70
2019-02-26T12:28:57.335Z,30.93
2019-02-26T12:31:31.160Z,30.73
2019-02-26T12:33:59.521Z,28.47
2019-02-26T12:36:29.766Z,27.67
2019-02-26T12:39:02.519Z,30.13
2019-02-26T12:41:36.545Z,30.40
2019-02-26T12:44:10.651Z,29.37
2019-02-26T12:46:37.078Z,30.23
2019-02-26T12:49:09.368Z,29.50
2019-02-26T12:51:38.351Z,27.73
2019-02-26T12:54:10.057Z,28.57
2019-02-26T12:56:39.457Z,28.83
2019-02-26T12:59:09.173Z,27.33
2019-02-26T13:01:40.820Z,29.00
2019-02-26T13:04:12.989Z,26.73
2019-02-26T13:06:45.278Z,28.40
2019-02-26T13:09:13.572Z,29.23
2019-02-26T13:12:00.667Z,30.13
2019-02-26T13:14:18.082Z,28.03
2019-02-26T13:16:48.833Z,27.67
2019-02-26T13:19:22.076Z,26.77
2019-02-26T13:21:51.860Z,30.80
2019-02-26T13:24:26.470Z,30.27
2019-02-26T13:26:55.671Z,29.83
2019-02-26T13:29:25.549Z,29.37
2019-02-26T13:31:59.124Z,32.23
2019-02-26T13:34:26.706Z,28.73
2019-02-26T13:36:57.003Z,28.63
2019-02-26T13:39:36.857Z,28.70
2019-02-26T13:42:03.699Z,30.33
2019-02-26T13:44:30.112Z,27.20
2019-02-26T13:47:00.021Z,31.53
2019-02-26T13:49:29.727Z,30.87
2019-02-26T13:51:59.590Z,30.57
2019-02-26T13:54:29.383Z,29.97
2019-02-26T13:56:59.078Z,28.83
2019-02-26T13:59:28.786Z,28.70
2019-02-26T14:01:58.601Z,30.30
2019-02-26T14:04:28.488Z,34.80
2019-02-26T14:06:58.271Z,30.13
2019-02-26T14:09:28.745Z,30.77
2019-02-26T14:11:58.596Z,32.03
2019-02-26T14:14:28.780Z,32.00
2019-02-26T14:16:58.584Z,32.10
2019-02-26T14:19:28.490Z,31.73
2019-02-26T14:21:58.675Z,31.53
2019-02-26T14:24:28.471Z,33.63
2019-02-26T14:26:58.214Z,32.57
2019-02-26T14:29:29.717Z,31.77
2019-02-26T14:32:00.106Z,31.43
2019-02-26T14:34:29.982Z,31.20
2019-02-26T14:37:00.010Z,34.03
2019-02-26T14:39:29.831Z,34.33
2019-02-26T14:41:59.542Z,37.53
2019-02-26T14:44:29.448Z,32.50
2019-02-26T14:46:59.227Z,33.00
2019-02-26T14:49:29.071Z,31.73
2019-02-26T14:51:58.889Z,31.93
2019-02-26T14:54:28.757Z,32.37
2019-02-26T14:56:59.457Z,31.43
2019-02-26T14:59:29.261Z,31.73
2019-02-26T15:01:59.042Z,32.87
2019-02-26T15:04:28.756Z,30.70
2019-02-26T15:06:58.412Z,31.67
2019-02-26T15:09:29.147Z,32.23
2019-02-26T15:11:58.846Z,33.50
2019-02-26T15:14:28.598Z,32.97
2019-02-26T15:17:02.276Z,34.40
2019-02-26T15:19:34.880Z,31.73
2019-02-26T15:22:06.163Z,31.97
2019-02-26T15:24:36.002Z,41.00
2019-02-26T15:27:05.783Z,33.87
2019-02-26T15:29:35.639Z,32.00
2019-02-26T15:32:05.538Z,32.53
2019-02-26T15:34:35.317Z,33.67
2019-02-26T15:37:05.273Z,34.60
2019-02-26T15:39:35.015Z,32.90
2019-02-26T15:42:04.935Z,34.03
2019-02-26T15:44:34.665Z,33.93
2019-02-26T15:47:04.359Z,33.13
2019-02-26T15:49:35.826Z,33.47
2019-02-26T15:52:05.672Z,33.73
2019-02-26T15:54:35.621Z,34.93
2019-02-26T15:57:09.167Z,34.07
2019-02-26T15:59:39.021Z,32.73
2019-02-26T16:02:08.979Z,31.83
2019-02-26T16:04:38.780Z,31.67
2019-02-26T16:07:08.572Z,32.30
2019-02-26T16:09:38.335Z,33.53
2019-02-26T16:12:08.143Z,33.87
2019-02-26T16:14:37.792Z,33.87
2019-02-26T16:17:26.890Z,33.97
2019-02-26T16:19:56.687Z,35.07
2019-02-26T16:22:26.527Z,31.97
2019-02-26T16:24:56.315Z,34.40
2019-02-26T16:27:26.139Z,34.17
2019-02-26T16:29:55.951Z,34.37
2019-02-26T16:32:25.670Z,32.50
2019-02-26T16:34:55.329Z,33.17
2019-02-26T16:37:25.275Z,34.23
2019-02-26T16:39:56.006Z,35.70
2019-02-26T16:42:26.327Z,35.40
2019-02-26T16:44:58.612Z,34.13
2019-02-26T16:47:27.374Z,34.13
2019-02-26T16:49:58.636Z,36.53
2019-02-26T16:52:28.453Z,36.53
2019-02-26T16:54:58.106Z,34.00
2019-02-26T16:57:28.162Z,35.83
2019-02-26T16:59:58.581Z,35.47
2019-02-26T17:02:28.296Z,36.70
2019-02-26T17:04:58.032Z,37.80
2019-02-26T17:07:27.710Z,37.37
2019-02-26T17:09:57.394Z,36.17
2019-02-26T17:12:29.161Z,36.70
2019-02-26T17:14:58.801Z,35.30
2019-02-26T17:17:28.554Z,35.33
2019-02-26T17:19:58.241Z,35.50
2019-02-26T17:22:28.548Z,33.53
2019-02-26T17:24:58.672Z,32.67
2019-02-26T17:27:28.435Z,37.03
2019-02-26T17:29:58.083Z,35.07
2019-02-26T17:32:27.734Z,34.77
2019-02-26T17:34:57.367Z,33.90
2019-02-26T17:37:27.017Z,33.60
2019-02-26T17:39:56.672Z,35.00
2019-02-26T17:42:26.395Z,37.57
2019-02-26T17:44:56.061Z,39.20
2019-02-26T17:47:25.735Z,37.40
2019-02-26T17:49:55.413Z,37.73
2019-02-26T17:52:25.057Z,38.03
2019-02-26T17:54:54.702Z,36.60
2019-02-26T17:57:24.297Z,36.97
2019-02-26T17:59:53.975Z,36.73
2019-02-26T18:02:27.335Z,37.33
2019-02-26T18:04:54.939Z,39.17
2019-02-26T18:07:24.557Z,38.87
2019-02-26T18:09:54.250Z,41.40
2019-02-26T18:12:23.866Z,39.07
2019-02-26T18:14:53.495Z,38.10
2019-02-26T18:17:23.125Z,34.60
2019-02-26T18:19:52.732Z,36.30
2019-02-26T18:22:22.397Z,36.83
2019-02-26T18:24:52.087Z,39.20
2019-02-26T18:27:21.729Z,38.67
2019-02-26T18:29:51.369Z,40.97
2019-02-26T18:32:21.003Z,46.80
2019-02-26T18:34:51.702Z,43.00
2019-02-26T18:37:21.423Z,41.43
2019-02-26T18:39:54.564Z,33.93
2019-02-26T18:42:22.486Z,34.10
2019-02-26T18:44:54.156Z,37.93
2019-02-26T18:47:23.479Z,38.23
2019-02-26T18:49:55.550Z,38.47
2019-02-26T18:52:24.430Z,39.40
2019-02-26T18:54:54.243Z,39.97
2019-02-26T18:57:25.840Z,39.70
2019-02-26T18:59:55.519Z,40.67
2019-02-26T19:02:25.163Z,42.47
2019-02-26T19:04:54.851Z,41.30
2019-02-26T19:07:24.648Z,36.47
2019-02-26T19:09:56.563Z,30.30
2019-02-26T19:12:30.236Z,30.00
2019-02-26T19:14:58.583Z,32.90
2019-02-26T19:17:28.256Z,38.60
2019-02-26T19:19:57.834Z,30.63
2019-02-26T19:22:27.530Z,34.83
2019-02-26T19:24:57.204Z,32.33
2019-02-26T19:27:26.795Z,29.37
2019-02-26T19:29:56.439Z,30.77
2019-02-26T19:32:26.056Z,36.80
2019-02-26T19:34:55.702Z,39.83
2019-02-26T19:37:25.318Z,41.00
2019-02-26T19:39:56.045Z,45.40
2019-02-26T19:42:26.648Z,45.37
2019-02-26T19:44:56.265Z,43.60
2019-02-26T19:47:25.909Z,47.40
2019-02-26T19:49:55.553Z,44.43
2019-02-26T19:52:25.437Z,42.07
2019-02-26T19:54:55.247Z,42.27
2019-02-26T19:57:24.906Z,46.47
2019-02-26T19:59:54.648Z,42.10
2019-02-26T20:02:24.254Z,38.77
2019-02-26T20:04:53.886Z,33.93
2019-02-26T20:07:25.203Z,37.60
2019-02-26T20:09:54.908Z,40.30
2019-02-26T20:12:28.613Z,41.67
2019-02-26T20:14:58.900Z,40.50
2019-02-26T20:17:28.518Z,40.50
2019-02-26T20:19:58.195Z,32.53
2019-02-26T20:22:30.127Z,26.40
2019-02-26T20:24:59.164Z,27.93
2019-02-26T20:27:28.754Z,36.20
2019-02-26T20:29:58.792Z,36.60
2019-02-26T20:32:30.869Z,25.23
2019-02-26T20:34:59.775Z,23.00
2019-02-26T20:37:29.353Z,19.10
2019-02-26T20:39:59.183Z,20.77
2019-02-26T20:42:28.937Z,19.57
2019-02-26T20:45:00.249Z,18.73
2019-02-26T20:47:31.537Z,25.63
2019-02-26T20:50:02.247Z,25.63
2019-02-26T20:52:32.883Z,24.83
2019-02-26T20:55:03.275Z,25.90
2019-02-26T20:57:34.907Z,30.60
2019-02-26T21:00:04.921Z,29.37
2019-02-26T21:02:58.598Z,31.17
2019-02-26T21:05:28.446Z,31.10
2019-02-26T21:07:58.889Z,27.60
2019-02-26T21:10:28.810Z,28.00
2019-02-26T21:13:01.624Z,28.27
2019-02-26T21:15:29.909Z,30.07
2019-02-26T21:17:59.615Z,33.23
2019-02-26T21:20:29.233Z,39.13
2019-02-26T21:22:58.943Z,38.73
2019-02-26T21:25:28.608Z,37.57
2019-02-26T21:28:00.770Z,42.33
2019-02-26T21:30:29.659Z,39.20
2019-02-26T21:32:59.375Z,43.77
2019-02-26T21:35:29.096Z,45.47
2019-02-26T21:37:58.822Z,44.90
2019-02-26T21:40:28.477Z,46.33
2019-02-26T21:43:01.590Z,42.77
2019-02-26T21:45:29.550Z,40.67
2019-02-26T21:48:02.253Z,34.70
2019-02-26T21:50:30.683Z,36.50
2019-02-26T21:53:00.395Z,36.43
2019-02-26T21:55:33.744Z,40.10
2019-02-26T21:58:01.434Z,28.57
2019-02-26T22:00:31.043Z,24.00
2019-02-26T22:03:00.807Z,22.37
2019-02-26T22:05:30.447Z,23.83
2019-02-26T22:08:00.084Z,22.80
2019-02-26T22:10:29.686Z,21.83
2019-02-26T22:12:59.358Z,25.43
2019-02-26T22:15:29.046Z,24.63
2019-02-26T22:17:58.996Z,28.30
2019-02-26T22:20:36.297Z,32.03
2019-02-26T22:23:02.983Z,31.63
2019-02-26T22:25:32.596Z,29.63
2019-02-26T22:28:02.224Z,27.17
2019-02-26T22:30:31.905Z,23.53
2019-02-26T22:33:01.595Z,20.30
2019-02-26T22:35:31.230Z,21.30
2019-02-26T22:38:00.907Z,26.77
2019-02-26T22:40:30.599Z,28.10
2019-02-26T22:43:00.255Z,31.30
2019-02-26T22:45:29.939Z,27.53
2019-02-26T22:47:59.537Z,26.57
2019-02-26T22:50:29.219Z,23.67
2019-02-26T22:52:58.849Z,24.17
2019-02-26T22:55:28.532Z,25.10
2019-02-26T22:58:02.510Z,23.40
2019-02-26T23:01:01.132Z,24.83
2019-02-26T23:03:32.488Z,26.33
2019-02-26T23:06:02.100Z,27.80
2019-02-26T23:08:32.422Z,35.37
2019-02-26T23:11:02.322Z,35.03
2019-02-26T23:13:33.204Z,30.63
2019-02-26T23:16:03.337Z,30.70
2019-02-26T23:18:33.240Z,38.37
2019-02-26T23:21:04.248Z,40.20
2019-02-26T23:23:34.256Z,42.60
2019-02-26T23:26:08.642Z,43.97
2019-02-26T23:28:36.124Z,45.93
2019-02-26T23:31:07.430Z,45.13
2019-02-26T23:33:37.241Z,43.50
2019-02-26T23:36:08.596Z,34.43
2019-02-26T23:38:38.319Z,18.87
2019-02-26T23:41:08.113Z,15.43
2019-02-26T23:43:37.929Z,16.30
2019-02-26T23:46:07.836Z,15.93
2019-02-26T23:48:40.754Z,19.87
2019-02-26T23:51:09.026Z,25.57
2019-02-26T23:53:38.747Z,26.87
2019-02-26T23:56:08.491Z,26.73
2019-02-26T23:58:38.118Z,27.33
